Time;durP1;ratioP1;P1;durP2;ratioP2;P2;SDS_P1;SDS_P2;PMS_P1;PMS_P2;Temp;Humidity;BMP_temperature;BMP_pressure;BME280_temperature;BME280_humidity;BME280_pressure;Samples;Min_cycle;Max_cycle;Signal;HPM_P1;HPM_P2
2023/04/11 00:00:03;;;;;;;2.43;2.30;;;;;;;;;;5035846;28;20227;-82
2023/04/11 00:02:33;;;;;;;2.40;2.10;;;;;;;;;;5035259;28;20229;-83
2023/04/11 00:05:01;;;;;;;2.30;2.10;;;;;;;;;;5035617;28;20195;-82
2023/04/11 00:07:29;;;;;;;3.33;2.33;;;;;;;;;;5034913;28;20257;-83
2023/04/11 00:09:57;;;;;;;3.67;2.30;;;;;;;;;;5035638;28;20215;-81
2023/04/11 00:12:24;;;;;;;2.60;2.13;;;;;;;;;;5034707;28;20238;-83
2023/04/11 00:14:52;;;;;;;3.47;2.57;;;;;;;;;;5035231;28;20650;-84
2023/04/11 00:17:20;;;;;;;3.17;2.83;;;;;;;;;;5034453;28;20231;-83
2023/04/11 00:19:47;;;;;;;2.60;2.20;;;;;;;;;;5032920;28;20211;-83
2023/04/11 00:22:16;;;;;;;2.60;2.40;;;;;;;;;;5033218;28;20235;-83
2023/04/11 00:24:43;;;;;;;2.50;2.30;;;;;;;;;;5034648;28;20230;-83
2023/04/11 00:27:11;;;;;;;2.50;2.17;;;;;;;;;;5034169;28;20245;-83
2023/04/11 00:29:39;;;;;;;3.00;2.23;;;;;;;;;;5034285;28;20214;-82
2023/04/11 00:32:06;;;;;;;1.93;1.83;;;;;;;;;;5033737;28;20296;-83
2023/04/11 00:34:34;;;;;;;1.70;1.60;;;;;;;;;;5034648;28;20225;-82
2023/04/11 00:37:01;;;;;;;2.00;1.90;;;;;;;;;;5043846;28;20223;-83
2023/04/11 00:39:29;;;;;;;1.67;1.57;;;;;;;;;;5022393;28;20206;-82
2023/04/11 00:42:03;;;;;;;1.90;1.70;;;;;;;;;;5033396;28;20242;-82
2023/04/11 00:44:32;;;;;;;1.80;1.70;;;;;;;;;;5034397;28;20662;-82
2023/04/11 00:47:00;;;;;;;1.60;1.50;;;;;;;;;;5033665;28;20234;-82
2023/04/11 00:49:28;;;;;;;1.60;1.50;;;;;;;;;;5034265;28;20206;-82
2023/04/11 00:51:55;;;;;;;1.70;1.60;;;;;;;;;;5033358;28;20234;-82
2023/04/11 00:54:27;;;;;;;1.70;1.50;;;;;;;;;;5033338;28;20226;-82
2023/04/11 00:56:55;;;;;;;1.50;1.40;;;;;;;;;;5032743;28;20327;-82
2023/04/11 00:59:22;;;;;;;2.23;1.73;;;;;;;;;;5034057;28;20202;-82
2023/04/11 01:01:51;;;;;;;1.53;1.40;;;;;;;;;;5033223;28;20230;-82
2023/04/11 01:04:20;;;;;;;1.57;1.47;;;;;;;;;;5028941;28;20704;-82
2023/04/11 01:06:48;;;;;;;1.83;1.60;;;;;;;;;;5033236;28;20238;-82
2023/04/11 01:09:16;;;;;;;1.50;1.40;;;;;;;;;;5033635;28;20679;-82
2023/04/11 01:11:43;;;;;;;1.47;1.37;;;;;;;;;;5033054;28;20269;-82
2023/04/11 01:14:10;;;;;;;1.50;1.43;;;;;;;;;;5033645;28;20222;-83
2023/04/11 01:16:37;;;;;;;1.50;1.40;;;;;;;;;;5033327;28;20234;-82
2023/04/11 01:19:07;;;;;;;2.23;1.43;;;;;;;;;;5033449;28;20568;-82
2023/04/11 01:21:35;;;;;;;1.37;1.37;;;;;;;;;;5033106;28;20238;-83
2023/04/11 01:24:03;;;;;;;1.57;1.47;;;;;;;;;;5034104;28;20199;-83
2023/04/11 01:26:30;;;;;;;2.57;1.50;;;;;;;;;;5033201;28;20234;-82
2023/04/11 01:28:57;;;;;;;2.47;1.50;;;;;;;;;;5033247;28;20237;-83
2023/04/11 01:31:24;;;;;;;1.43;1.33;;;;;;;;;;5032970;28;20246;-82
2023/04/11 01:33:51;;;;;;;1.47;1.37;;;;;;;;;;5033325;28;20725;-83
2023/04/11 01:36:19;;;;;;;1.33;1.23;;;;;;;;;;5032987;28;20241;-83
2023/04/11 01:38:46;;;;;;;1.77;1.40;;;;;;;;;;5033507;28;20207;-82
2023/04/11 01:41:16;;;;;;;1.47;1.37;;;;;;;;;;5032564;28;20329;-83
2023/04/11 01:43:43;;;;;;;1.60;1.50;;;;;;;;;;5033409;28;20217;-83
2023/04/11 01:46:10;;;;;;;1.20;1.17;;;;;;;;;;5032674;28;20234;-83
2023/04/11 01:48:37;;;;;;;1.40;1.30;;;;;;;;;;5033505;28;20214;-83
2023/04/11 01:51:06;;;;;;;1.53;1.40;;;;;;;;;;5032480;28;20277;-80
2023/04/11 01:53:33;;;;;;;1.50;1.40;;;;;;;;;;5023865;28;20204;-80
2023/04/11 01:56:00;;;;;;;1.30;1.30;;;;;;;;;;5020247;28;20243;-80
2023/04/11 01:58:28;;;;;;;1.03;1.03;;;;;;;;;;5032776;28;20195;-81
2023/04/11 02:00:55;;;;;;;1.37;1.27;;;;;;;;;;5031993;28;20246;-80
2023/04/11 02:03:22;;;;;;;1.27;1.20;;;;;;;;;;5032410;28;20346;-80
2023/04/11 02:05:49;;;;;;;1.10;1.10;;;;;;;;;;5031842;28;20674;-81
2023/04/11 02:08:16;;;;;;;1.30;1.30;;;;;;;;;;5032492;28;20209;-81
2023/04/11 02:10:43;;;;;;;1.40;1.30;;;;;;;;;;5032286;28;20227;-81
2023/04/11 02:13:10;;;;;;;1.13;1.13;;;;;;;;;;5032297;28;20211;-81
2023/04/11 02:15:39;;;;;;;1.40;1.33;;;;;;;;;;5031896;28;20293;-81
2023/04/11 02:18:08;;;;;;;1.70;1.37;;;;;;;;;;5032135;28;20238;-81
2023/04/11 02:20:36;;;;;;;2.07;1.27;;;;;;;;;;5031904;28;20310;-81
2023/04/11 02:23:04;;;;;;;1.33;1.20;;;;;;;;;;5032075;28;20607;-81
2023/04/11 02:25:31;;;;;;;1.10;1.10;;;;;;;;;;5031233;28;20205;-82
2023/04/11 02:27:58;;;;;;;1.80;1.27;;;;;;;;;;5032394;28;20214;-81
2023/04/11 02:30:25;;;;;;;1.67;1.20;;;;;;;;;;5031731;28;20259;-81
2023/04/11 02:32:53;;;;;;;4.73;1.37;;;;;;;;;;5031347;28;20242;-81
2023/04/11 02:35:20;;;;;;;1.33;1.30;;;;;;;;;;5031962;28;20230;-81
2023/04/11 02:37:47;;;;;;;3.33;1.50;;;;;;;;;;5031234;28;20238;-81
2023/04/11 02:40:14;;;;;;;1.20;1.10;;;;;;;;;;5031374;28;20284;-81
2023/04/11 02:42:41;;;;;;;2.77;1.57;;;;;;;;;;5031208;28;20861;-80
2023/04/11 02:45:10;;;;;;;1.20;1.07;;;;;;;;;;5031899;28;20205;-81
2023/04/11 02:47:37;;;;;;;3.03;1.10;;;;;;;;;;5032645;28;20238;-81
2023/04/11 02:50:06;;;;;;;1.67;1.40;;;;;;;;;;5042763;28;20230;-81
2023/04/11 02:52:33;;;;;;;1.40;1.30;;;;;;;;;;5031135;28;20710;-81
2023/04/11 02:55:00;;;;;;;2.33;1.13;;;;;;;;;;5034922;28;20222;-80
2023/04/11 02:57:27;;;;;;;2.53;1.50;;;;;;;;;;5030582;28;20234;-81
2023/04/11 02:59:54;;;;;;;1.57;1.47;;;;;;;;;;5024688;28;20210;-81
2023/04/11 03:02:22;;;;;;;1.40;1.30;;;;;;;;;;5027508;28;20240;-81
2023/04/11 03:04:49;;;;;;;1.40;1.30;;;;;;;;;;5031811;28;20613;-81
2023/04/11 03:07:17;;;;;;;1.30;1.30;;;;;;;;;;5031227;28;20226;-81
2023/04/11 03:09:44;;;;;;;1.20;1.10;;;;;;;;;;5031433;28;20685;-81
2023/04/11 03:12:11;;;;;;;1.30;1.20;;;;;;;;;;5031028;28;20299;-81
2023/04/11 03:14:38;;;;;;;3.90;1.30;;;;;;;;;;5031691;28;20214;-81
2023/04/11 03:17:05;;;;;;;2.07;1.43;;;;;;;;;;5031194;28;20229;-82
2023/04/11 03:19:32;;;;;;;2.03;1.23;;;;;;;;;;5031731;28;20730;-81
2023/04/11 03:22:01;;;;;;;1.40;1.30;;;;;;;;;;5034907;28;20698;-82
2023/04/11 03:24:29;;;;;;;2.13;1.30;;;;;;;;;;5035887;28;20210;-81
2023/04/11 03:26:56;;;;;;;1.63;1.40;;;;;;;;;;5034799;28;20240;-81
2023/04/11 03:29:23;;;;;;;1.40;1.30;;;;;;;;;;5035219;28;20248;-81
2023/04/11 03:31:50;;;;;;;2.07;1.40;;;;;;;;;;5034412;28;20234;-82
2023/04/11 03:34:17;;;;;;;1.70;1.40;;;;;;;;;;5035295;28;20203;-81
2023/04/11 03:36:44;;;;;;;2.20;1.37;;;;;;;;;;5035147;28;20258;-82
2023/04/11 03:39:11;;;;;;;1.87;1.40;;;;;;;;;;5035248;28;20210;-83
2023/04/11 03:41:40;;;;;;;1.20;1.20;;;;;;;;;;5034647;28;20242;-82
2023/04/11 03:44:07;;;;;;;1.43;1.30;;;;;;;;;;5035010;28;20205;-81
2023/04/11 03:46:34;;;;;;;1.40;1.30;;;;;;;;;;5034941;28;20241;-82
2023/04/11 03:49:01;;;;;;;1.53;1.40;;;;;;;;;;5035071;28;20194;-83
2023/04/11 03:51:28;;;;;;;1.30;1.30;;;;;;;;;;5034289;28;20253;-81
2023/04/11 03:53:55;;;;;;;2.17;1.50;;;;;;;;;;5035210;28;20720;-83
2023/04/11 03:56:22;;;;;;;2.90;1.50;;;;;;;;;;5034256;28;20234;-82
2023/04/11 03:58:51;;;;;;;2.40;1.70;;;;;;;;;;5034766;28;20194;-82
2023/04/11 04:01:18;;;;;;;1.40;1.30;;;;;;;;;;5033935;28;20246;-84
2023/04/11 04:03:45;;;;;;;3.53;1.53;;;;;;;;;;5035416;28;20218;-84
2023/04/11 04:06:12;;;;;;;1.77;1.43;;;;;;;;;;5033579;28;20246;-84
2023/04/11 04:08:39;;;;;;;2.67;1.27;;;;;;;;;;5034920;28;20198;-84
2023/04/11 04:11:06;;;;;;;1.10;1.10;;;;;;;;;;5033759;28;20242;-85
2023/04/11 04:13:33;;;;;;;1.40;1.40;;;;;;;;;;5034795;28;20602;-85
2023/04/11 04:16:01;;;;;;;2.43;1.30;;;;;;;;;;5034512;28;20245;-85
2023/04/11 04:18:29;;;;;;;1.40;1.30;;;;;;;;;;5034902;28;20210;-84
2023/04/11 04:20:56;;;;;;;1.43;1.33;;;;;;;;;;5034280;28;20699;-84
2023/04/11 04:23:23;;;;;;;1.97;1.40;;;;;;;;;;5034599;28;20199;-84
2023/04/11 04:25:50;;;;;;;1.30;1.20;;;;;;;;;;5034285;28;20241;-85
2023/04/11 04:28:21;;;;;;;1.43;1.37;;;;;;;;;;5034825;28;20207;-83
2023/04/11 04:30:52;;;;;;;1.30;1.20;;;;;;;;;;5034337;28;20664;-85
2023/04/11 04:33:21;;;;;;;2.20;1.40;;;;;;;;;;5034430;28;20207;-84
2023/04/11 04:35:50;;;;;;;1.77;1.40;;;;;;;;;;5033929;28;20226;-84
2023/04/11 04:38:18;;;;;;;2.17;1.57;;;;;;;;;;5034628;28;20260;-84
2023/04/11 04:40:45;;;;;;;2.40;1.30;;;;;;;;;;5033541;28;20776;-84
2023/04/11 04:43:16;;;;;;;3.30;1.70;;;;;;;;;;5033603;28;20205;-85
2023/04/11 04:45:44;;;;;;;1.43;1.33;;;;;;;;;;5033830;28;20207;-84
2023/04/11 04:48:11;;;;;;;1.40;1.30;;;;;;;;;;5042547;28;20551;-84
2023/04/11 04:50:39;;;;;;;4.20;1.73;;;;;;;;;;5053139;28;20230;-85
2023/04/11 04:53:07;;;;;;;3.83;1.50;;;;;;;;;;5054011;28;20628;-86
2023/04/11 04:55:34;;;;;;;2.33;1.60;;;;;;;;;;5053661;28;20369;-85
2023/04/11 04:58:01;;;;;;;2.43;2.20;;;;;;;;;;5054311;28;20216;-86
2023/04/11 05:00:28;;;;;;;4.30;2.93;;;;;;;;;;5053993;28;20222;-86
2023/04/11 05:02:55;;;;;;;4.17;2.50;;;;;;;;;;5053574;28;20295;-85
2023/04/11 05:05:22;;;;;;;3.90;2.77;;;;;;;;;;5054028;28;20229;-86
2023/04/11 05:07:51;;;;;;;3.40;1.50;;;;;;;;;;5053453;28;20250;-85
2023/04/11 05:10:18;;;;;;;3.70;1.63;;;;;;;;;;5036256;28;20221;-84
2023/04/11 05:12:45;;;;;;;2.07;1.73;;;;;;;;;;5032744;28;20241;-84
2023/04/11 05:15:13;;;;;;;3.50;1.57;;;;;;;;;;5032789;28;20317;-84
2023/04/11 05:17:41;;;;;;;3.23;1.80;;;;;;;;;;5031794;28;20254;-84
2023/04/11 05:20:08;;;;;;;3.03;1.87;;;;;;;;;;5033574;28;20227;-85
2023/04/11 05:22:36;;;;;;;3.23;1.57;;;;;;;;;;5032852;28;20234;-86
2023/04/11 05:25:07;;;;;;;3.60;1.97;;;;;;;;;;5033911;28;20670;-85
2023/04/11 05:27:34;;;;;;;3.20;1.80;;;;;;;;;;5035014;28;20306;-84
2023/04/11 05:30:01;;;;;;;2.07;1.87;;;;;;;;;;5034496;28;20230;-85
2023/04/11 05:32:28;;;;;;;3.60;1.50;;;;;;;;;;5033376;28;20257;-85
2023/04/11 05:34:56;;;;;;;4.57;1.87;;;;;;;;;;5034501;28;20218;-84
2023/04/11 05:37:24;;;;;;;4.43;2.10;;;;;;;;;;5033979;28;20598;-85
2023/04/11 05:39:51;;;;;;;3.03;1.80;;;;;;;;;;5032233;28;20202;-84
2023/04/11 05:42:19;;;;;;;3.03;1.93;;;;;;;;;;5032784;28;20242;-85
2023/04/11 05:44:46;;;;;;;4.43;2.00;;;;;;;;;;5034268;28;20453;-85
2023/04/11 05:47:14;;;;;;;3.60;1.73;;;;;;;;;;5035594;28;20234;-85
2023/04/11 05:49:42;;;;;;;4.70;2.17;;;;;;;;;;5036799;28;20266;-85
2023/04/11 05:52:09;;;;;;;3.47;1.87;;;;;;;;;;5037968;28;20237;-86
2023/04/11 05:54:37;;;;;;;3.20;1.70;;;;;;;;;;5038459;28;20214;-85
2023/04/11 05:57:05;;;;;;;2.23;1.50;;;;;;;;;;5036737;28;20235;-86
2023/04/11 05:59:34;;;;;;;4.10;1.60;;;;;;;;;;5039094;28;20302;-86
2023/04/11 06:02:02;;;;;;;3.40;1.63;;;;;;;;;;5036335;28;20260;-85
2023/04/11 06:04:30;;;;;;;2.03;1.80;;;;;;;;;;5037999;28;20233;-86
2023/04/11 06:06:57;;;;;;;6.13;1.90;;;;;;;;;;5035475;28;20313;-86
2023/04/11 06:09:25;;;;;;;2.97;1.60;;;;;;;;;;5036608;28;20195;-86
2023/04/11 06:11:52;;;;;;;3.47;1.77;;;;;;;;;;5035204;28;20238;-85
2023/04/11 06:14:19;;;;;;;4.40;2.07;;;;;;;;;;5034070;28;20214;-85
2023/04/11 06:16:48;;;;;;;3.53;2.07;;;;;;;;;;5034231;28;20238;-85
2023/04/11 06:19:16;;;;;;;5.70;1.83;;;;;;;;;;5035544;28;20202;-85
2023/04/11 06:21:43;;;;;;;2.90;1.70;;;;;;;;;;5034229;28;20235;-85
2023/04/11 06:24:12;;;;;;;3.57;1.57;;;;;;;;;;5033803;28;20207;-85
2023/04/11 06:26:41;;;;;;;3.40;1.83;;;;;;;;;;5033255;28;20245;-86
2023/04/11 06:29:09;;;;;;;2.53;1.80;;;;;;;;;;5033872;28;20190;-86
2023/04/11 06:31:36;;;;;;;1.63;1.53;;;;;;;;;;5032349;28;20243;-84
2023/04/11 06:34:05;;;;;;;2.57;1.70;;;;;;;;;;5031571;28;20206;-84
2023/04/11 06:36:32;;;;;;;6.17;1.97;;;;;;;;;;5031795;28;20249;-85
2023/04/11 06:38:59;;;;;;;2.50;1.80;;;;;;;;;;5028259;28;20777;-84
2023/04/11 06:41:26;;;;;;;5.90;1.67;;;;;;;;;;5030318;28;20319;-84
2023/04/11 06:43:54;;;;;;;5.60;2.13;;;;;;;;;;5032662;28;20209;-85
2023/04/11 06:46:21;;;;;;;2.53;1.83;;;;;;;;;;5032291;28;20260;-84
2023/04/11 06:48:48;;;;;;;1.83;1.70;;;;;;;;;;5033539;28;20583;-85
2023/04/11 06:51:17;;;;;;;3.63;2.10;;;;;;;;;;5031004;28;20244;-84
2023/04/11 06:53:44;;;;;;;6.13;1.90;;;;;;;;;;5032467;28;20241;-84
2023/04/11 06:56:11;;;;;;;3.57;1.93;;;;;;;;;;5024742;28;20239;-84
2023/04/11 06:58:38;;;;;;;5.37;2.00;;;;;;;;;;5012279;28;20549;-86
2023/04/11 07:01:06;;;;;;;3.37;2.20;;;;;;;;;;5016268;28;20238;-86
2023/04/11 07:03:33;;;;;;;2.43;2.07;;;;;;;;;;5032783;28;20202;-84
2023/04/11 07:06:00;;;;;;;4.77;2.10;;;;;;;;;;5031429;28;20241;-84
2023/04/11 07:08:29;;;;;;;6.93;1.90;;;;;;;;;;5032295;28;20257;-84
2023/04/11 07:10:56;;;;;;;2.87;1.93;;;;;;;;;;5031453;28;20235;-84
2023/04/11 07:13:23;;;;;;;4.63;1.90;;;;;;;;;;5031975;28;20209;-84
2023/04/11 07:15:50;;;;;;;3.87;1.87;;;;;;;;;;5032551;28;20230;-84
2023/04/11 07:18:17;;;;;;;4.37;2.20;;;;;;;;;;5035347;28;20206;-84
2023/04/11 07:20:45;;;;;;;1.87;1.77;;;;;;;;;;5032987;28;20253;-85
2023/04/11 07:23:12;;;;;;;2.93;1.77;;;;;;;;;;5033626;28;20211;-84
2023/04/11 07:25:41;;;;;;;4.00;1.70;;;;;;;;;;5034926;28;20202;-85
2023/04/11 07:28:08;;;;;;;4.23;2.00;;;;;;;;;;5036362;28;20207;-85
2023/04/11 07:30:35;;;;;;;2.43;2.23;;;;;;;;;;5034646;28;20219;-85
2023/04/11 07:33:03;;;;;;;5.30;2.17;;;;;;;;;;5034319;28;20671;-87
2023/04/11 07:35:33;;;;;;;3.30;1.70;;;;;;;;;;5039490;28;20199;-87
2023/04/11 07:38:00;;;;;;;2.80;1.70;;;;;;;;;;5038776;28;20609;-85
2023/04/11 07:40:28;;;;;;;4.43;2.07;;;;;;;;;;5036897;28;20235;-88
2023/04/11 07:42:58;;;;;;;6.90;2.00;;;;;;;;;;5038304;28;20233;-87
2023/04/11 07:45:25;;;;;;;4.20;1.80;;;;;;;;;;5037963;28;20216;-87
2023/04/11 07:47:58;;;;;;;3.03;1.87;;;;;;;;;;5031791;28;20226;-85
2023/04/11 07:50:25;;;;;;;5.53;2.00;;;;;;;;;;5032725;28;20235;-86
2023/04/11 07:52:54;;;;;;;6.83;1.80;;;;;;;;;;5030562;28;20235;-85
2023/04/11 07:55:21;;;;;;;5.67;1.80;;;;;;;;;;5032009;28;20207;-85
2023/04/11 07:57:48;;;;;;;3.77;1.80;;;;;;;;;;5031023;28;20246;-85
2023/04/11 08:00:22;;;;;;;2.63;1.50;;;;;;;;;;5031468;28;20226;-85
2023/04/11 08:02:49;;;;;;;2.83;1.70;;;;;;;;;;5030965;28;20254;-86
2023/04/11 08:05:18;;;;;;;4.63;1.67;;;;;;;;;;5031703;28;20294;-85
2023/04/11 08:07:45;;;;;;;4.70;2.17;;;;;;;;;;5034342;28;20235;-86
2023/04/11 08:10:18;;;;;;;4.10;1.40;;;;;;;;;;5034879;28;20226;-86
2023/04/11 08:12:45;;;;;;;2.83;1.43;;;;;;;;;;5034500;28;20242;-85
2023/04/11 08:15:12;;;;;;;5.00;1.50;;;;;;;;;;5035057;28;20667;-84
2023/04/11 08:17:42;;;;;;;6.57;1.80;;;;;;;;;;5034653;28;20242;-86
2023/04/11 08:20:11;;;;;;;3.13;1.40;;;;;;;;;;5035545;28;20227;-86
2023/04/11 08:22:38;;;;;;;4.67;1.83;;;;;;;;;;5034212;28;20235;-85
2023/04/11 08:25:06;;;;;;;3.53;1.40;;;;;;;;;;5035520;28;20256;-86
2023/04/11 08:27:33;;;;;;;3.10;1.80;;;;;;;;;;5034826;28;20234;-85
2023/04/11 08:30:00;;;;;;;3.20;1.87;;;;;;;;;;5035493;28;20854;-86
2023/04/11 08:32:27;;;;;;;5.10;2.00;;;;;;;;;;5023043;28;20231;-84
2023/04/11 08:34:57;;;;;;;5.30;1.83;;;;;;;;;;5035355;28;20214;-86
2023/04/11 08:37:24;;;;;;;4.50;1.87;;;;;;;;;;5021239;28;20239;-86
2023/04/11 08:39:53;;;;;;;3.13;1.63;;;;;;;;;;5014866;28;20223;-85
2023/04/11 08:42:23;;;;;;;5.40;1.70;;;;;;;;;;5019835;28;20238;-86
2023/04/11 08:44:53;;;;;;;5.37;1.73;;;;;;;;;;5034490;28;20206;-86
2023/04/11 08:47:20;;;;;;;6.07;1.93;;;;;;;;;;5034587;28;20309;-86
2023/04/11 08:49:47;;;;;;;4.83;1.70;;;;;;;;;;5034608;28;20610;-85
2023/04/11 08:52:18;;;;;;;3.23;1.67;;;;;;;;;;5033965;28;20254;-85
2023/04/11 08:54:45;;;;;;;6.03;1.70;;;;;;;;;;5035288;28;20651;-85
2023/04/11 08:57:24;;;;;;;4.67;1.53;;;;;;;;;;5034989;28;20235;-86
2023/04/11 08:59:51;;;;;;;3.83;2.20;;;;;;;;;;5035459;28;20301;-86
2023/04/11 09:02:18;;;;;;;2.57;1.50;;;;;;;;;;5034280;28;20238;-86
2023/04/11 09:04:46;;;;;;;5.90;1.77;;;;;;;;;;5035247;28;20217;-86
2023/04/11 09:07:14;;;;;;;5.50;1.77;;;;;;;;;;5034710;28;20234;-86
2023/04/11 09:09:42;;;;;;;5.83;2.57;;;;;;;;;;5036235;28;20675;-85
2023/04/11 09:12:10;;;;;;;2.07;1.60;;;;;;;;;;5033543;28;20234;-85
2023/04/11 09:14:37;;;;;;;14.00;2.80;;;;;;;;;;5034455;28;20245;-84
2023/04/11 09:17:05;;;;;;;6.40;1.70;;;;;;;;;;5033018;28;20695;-85
2023/04/11 09:19:32;;;;;;;3.70;1.30;;;;;;;;;;5033159;28;20202;-85
2023/04/11 09:22:01;;;;;;;4.20;1.70;;;;;;;;;;5032675;28;20242;-84
2023/04/11 09:24:28;;;;;;;6.70;2.20;;;;;;;;;;5033070;28;20566;-85
2023/04/11 09:27:07;;;;;;;3.30;1.43;;;;;;;;;;5033401;28;20322;-85
2023/04/11 09:29:36;;;;;;;5.87;1.70;;;;;;;;;;5033500;28;20254;-85
2023/04/11 09:32:03;;;;;;;4.67;1.80;;;;;;;;;;5033172;28;20266;-86
2023/04/11 09:34:30;;;;;;;5.67;1.60;;;;;;;;;;5033635;28;20203;-85
2023/04/11 09:36:58;;;;;;;5.20;1.97;;;;;;;;;;5033487;28;20261;-86
2023/04/11 09:39:27;;;;;;;3.20;1.40;;;;;;;;;;5033896;28;20234;-85
2023/04/11 09:41:54;;;;;;;5.93;1.97;;;;;;;;;;5033058;28;20233;-86
2023/04/11 09:44:35;;;;;;;5.27;1.63;;;;;;;;;;5033315;28;20222;-87
2023/04/11 09:47:02;;;;;;;5.27;2.43;;;;;;;;;;5033466;28;20258;-86
2023/04/11 09:49:30;;;;;;;3.87;1.67;;;;;;;;;;5033999;28;20213;-86
2023/04/11 09:51:58;;;;;;;6.33;1.53;;;;;;;;;;5032924;28;20710;-86
2023/04/11 09:54:27;;;;;;;9.17;2.20;;;;;;;;;;5032887;28;20202;-85
2023/04/11 09:56:55;;;;;;;5.07;1.47;;;;;;;;;;5033041;28;20256;-85
2023/04/11 09:59:23;;;;;;;6.07;1.77;;;;;;;;;;5033640;28;20210;-86
2023/04/11 10:01:51;;;;;;;7.40;2.07;;;;;;;;;;5033042;28;20246;-85
2023/04/11 10:04:19;;;;;;;6.33;1.70;;;;;;;;;;5033383;28;20261;-86
2023/04/11 10:06:50;;;;;;;5.83;1.60;;;;;;;;;;5032977;28;20238;-86
2023/04/11 10:09:18;;;;;;;3.70;1.37;;;;;;;;;;5033616;28;20214;-85
2023/04/11 10:11:45;;;;;;;4.23;1.60;;;;;;;;;;5032608;28;20334;-86
2023/04/11 10:14:27;;;;;;;5.97;1.73;;;;;;;;;;5033439;28;20642;-86
2023/04/11 10:17:18;;;;;;;5.27;1.70;;;;;;;;;;5032657;28;20234;-86
2023/04/11 10:19:47;;;;;;;5.23;1.40;;;;;;;;;;5018256;28;20207;-86
2023/04/11 10:22:45;;;;;;;7.90;1.30;;;;;;;;;;5032405;28;20238;-86
2023/04/11 10:25:18;;;;;;;3.80;1.30;;;;;;;;;;5033237;28;20217;-87
2023/04/11 10:27:49;;;;;;;3.40;1.33;;;;;;;;;;5032538;28;20230;-86
2023/04/11 10:30:16;;;;;;;3.20;1.43;;;;;;;;;;5032611;28;20219;-86
2023/04/11 10:32:47;;;;;;;6.23;1.60;;;;;;;;;;5024746;28;20240;-87
2023/04/11 10:35:22;;;;;;;3.17;1.53;;;;;;;;;;5027604;28;20191;-87
2023/04/11 10:37:50;;;;;;;3.47;1.27;;;;;;;;;;5031584;28;20338;-86
2023/04/11 10:40:19;;;;;;;4.30;1.57;;;;;;;;;;5032825;28;20230;-86
2023/04/11 10:42:46;;;;;;;3.47;1.50;;;;;;;;;;5032220;28;20609;-86
2023/04/11 10:45:24;;;;;;;3.17;1.63;;;;;;;;;;5027148;28;20202;-86
2023/04/11 10:48:06;;;;;;;4.43;1.50;;;;;;;;;;5012482;28;20258;-86
2023/04/11 10:50:36;;;;;;;1.67;1.23;;;;;;;;;;5013033;28;20243;-86
2023/04/11 10:53:05;;;;;;;3.33;1.30;;;;;;;;;;5031876;28;20607;-86
2023/04/11 10:55:42;;;;;;;3.17;1.10;;;;;;;;;;5032043;28;20774;-86
2023/04/11 10:58:10;;;;;;;3.03;1.20;;;;;;;;;;5019394;28;20566;-88
2023/04/11 11:00:56;;;;;;;4.50;1.50;;;;;;;;;;5021910;28;20309;-87
2023/04/11 11:03:24;;;;;;;1.97;1.10;;;;;;;;;;5032416;28;20203;-86
2023/04/11 11:05:58;;;;;;;3.90;1.33;;;;;;;;;;5031302;28;20237;-86
2023/04/11 11:08:29;;;;;;;4.00;1.70;;;;;;;;;;5032044;28;20556;-86
2023/04/11 11:11:00;;;;;;;4.00;1.40;;;;;;;;;;5031756;28;20618;-86
2023/04/11 11:13:38;;;;;;;6.00;1.67;;;;;;;;;;5032502;28;20319;-86
2023/04/11 11:16:06;;;;;;;1.57;1.20;;;;;;;;;;5031608;28;20238;-86
2023/04/11 11:18:34;;;;;;;3.33;1.30;;;;;;;;;;5032140;28;20227;-87
2023/04/11 11:21:02;;;;;;;3.70;1.47;;;;;;;;;;5031592;28;20297;-86
2023/04/11 11:23:29;;;;;;;2.17;1.50;;;;;;;;;;5031998;28;20215;-86
2023/04/11 11:25:59;;;;;;;2.97;1.38;;;;;;;;;;5031224;28;20238;-87
2023/04/11 11:28:28;;;;;;;2.97;1.50;;;;;;;;;;5022042;28;20234;-85
2023/04/11 11:30:55;;;;;;;2.70;1.40;;;;;;;;;;5011102;28;20262;-85
2023/04/11 11:33:23;;;;;;;4.70;1.53;;;;;;;;;;5011636;28;20218;-85
2023/04/11 11:35:52;;;;;;;2.42;1.08;;;;;;;;;;5018478;28;20241;-86
2023/04/11 11:38:21;;;;;;;1.10;1.00;;;;;;;;;;5031075;28;20258;-85
2023/04/11 11:40:49;;;;;;;4.73;1.47;;;;;;;;;;5030961;28;20741;-84
2023/04/11 11:43:17;;;;;;;2.60;1.38;;;;;;;;;;5034938;28;20207;-85
2023/04/11 11:45:45;;;;;;;2.53;1.02;;;;;;;;;;5034357;28;20204;-85
2023/04/11 11:48:20;;;;;;;1.48;0.98;;;;;;;;;;5034834;28;20206;-85
2023/04/11 11:50:47;;;;;;;5.78;1.20;;;;;;;;;;5034704;28;20238;-84
2023/04/11 11:53:15;;;;;;;1.55;0.98;;;;;;;;;;5034647;28;20603;-84
2023/04/11 11:55:44;;;;;;;2.65;1.05;;;;;;;;;;5034239;28;20253;-84
2023/04/11 11:58:11;;;;;;;2.50;1.15;;;;;;;;;;5034956;28;20245;-84
2023/04/11 12:00:38;;;;;;;1.88;1.00;;;;;;;;;;5023995;28;20711;-85
2023/04/11 12:03:08;;;;;;;1.92;0.80;;;;;;;;;;5019755;28;20805;-86
2023/04/11 12:05:35;;;;;;;2.97;1.25;;;;;;;;;;5033594;28;20207;-85
2023/04/11 12:08:03;;;;;;;1.77;1.13;;;;;;;;;;5031053;28;20214;-85
2023/04/11 12:10:37;;;;;;;1.58;0.95;;;;;;;;;;5034011;28;20229;-83
2023/04/11 12:13:12;;;;;;;4.22;1.08;;;;;;;;;;5033038;28;20288;-84
2023/04/11 12:15:40;;;;;;;2.25;1.10;;;;;;;;;;5033522;28;20670;-85
2023/04/11 12:18:08;;;;;;;2.42;1.10;;;;;;;;;;5033362;28;20215;-84
2023/04/11 12:20:35;;;;;;;1.85;1.30;;;;;;;;;;5022334;28;20223;-84
2023/04/11 12:23:02;;;;;;;1.45;0.90;;;;;;;;;;5023326;28;20295;-86
2023/04/11 12:25:31;;;;;;;3.33;1.20;;;;;;;;;;5034026;28;20211;-85
2023/04/11 12:27:58;;;;;;;1.40;1.10;;;;;;;;;;5034642;28;20187;-86
2023/04/11 12:30:26;;;;;;;2.47;1.20;;;;;;;;;;5034231;28;20593;-85
2023/04/11 12:32:53;;;;;;;2.72;0.95;;;;;;;;;;5033562;28;20229;-85
2023/04/11 12:35:21;;;;;;;3.53;1.20;;;;;;;;;;5034237;28;20207;-86
2023/04/11 12:37:48;;;;;;;3.45;1.30;;;;;;;;;;5033647;28;20234;-86
2023/04/11 12:40:15;;;;;;;2.85;1.10;;;;;;;;;;5033600;28;20321;-86
2023/04/11 12:42:42;;;;;;;2.50;0.98;;;;;;;;;;5033305;28;20313;-86
2023/04/11 12:45:10;;;;;;;3.17;1.05;;;;;;;;;;5033430;28;20210;-87
2023/04/11 12:47:41;;;;;;;2.83;1.40;;;;;;;;;;5033484;28;20234;-85
2023/04/11 12:50:09;;;;;;;1.40;0.73;;;;;;;;;;5034127;28;20227;-87
2023/04/11 12:52:36;;;;;;;3.72;1.30;;;;;;;;;;5031504;28;20227;-85
2023/04/11 12:55:03;;;;;;;4.10;0.93;;;;;;;;;;5024221;28;20243;-87
2023/04/11 12:57:30;;;;;;;4.63;0.85;;;;;;;;;;5024884;28;20261;-88
2023/04/11 12:59:58;;;;;;;4.45;1.02;;;;;;;;;;5034233;28;20209;-86
2023/04/11 13:02:25;;;;;;;2.10;1.10;;;;;;;;;;5034439;28;20238;-89
2023/04/11 13:04:54;;;;;;;3.28;1.10;;;;;;;;;;5027259;28;20207;-86
2023/04/11 13:07:21;;;;;;;2.33;1.30;;;;;;;;;;5014506;28;20718;-89
2023/04/11 13:09:48;;;;;;;2.47;1.30;;;;;;;;;;5015025;28;20211;-88
2023/04/11 13:12:15;;;;;;;1.15;1.05;;;;;;;;;;5014477;28;20238;-88
2023/04/11 13:14:43;;;;;;;1.70;0.80;;;;;;;;;;5031136;28;20198;-88
2023/04/11 13:17:10;;;;;;;1.70;1.02;;;;;;;;;;5034603;28;20241;-88
2023/04/11 13:19:37;;;;;;;1.42;0.93;;;;;;;;;;5034558;28;20233;-87
2023/04/11 13:22:05;;;;;;;1.58;0.73;;;;;;;;;;5033829;28;20893;-86
2023/04/11 13:24:32;;;;;;;1.92;0.90;;;;;;;;;;5034746;28;20268;-88
2023/04/11 13:26:59;;;;;;;1.58;1.02;;;;;;;;;;5033289;28;20231;-88
2023/04/11 13:29:26;;;;;;;1.92;1.25;;;;;;;;;;5033524;28;20203;-86
2023/04/11 13:31:53;;;;;;;1.80;0.93;;;;;;;;;;5033348;28;20266;-87
2023/04/11 13:34:23;;;;;;;2.05;0.88;;;;;;;;;;5034025;28;20206;-87
2023/04/11 13:36:50;;;;;;;1.85;1.10;;;;;;;;;;5033293;28;20242;-88
2023/04/11 13:39:18;;;;;;;2.65;1.10;;;;;;;;;;5033937;28;20707;-88
2023/04/11 13:41:45;;;;;;;1.10;0.80;;;;;;;;;;5033258;28;20269;-87
2023/04/11 13:44:13;;;;;;;2.95;1.02;;;;;;;;;;5033889;28;20206;-87
2023/04/11 13:47:10;;;;;;;1.48;1.05;;;;;;;;;;5036195;28;20241;-87
2023/04/11 13:49:37;;;;;;;2.60;1.00;;;;;;;;;;4978815;28;20194;-88
2023/04/11 13:52:09;;;;;;;3.47;0.98;;;;;;;;;;5034773;28;20234;-87
2023/04/11 13:57:08;;;;;;;2.63;1.00;;;;;;;;;;4997350;28;20219;-85
2023/04/11 13:59:35;;;;;;;3.05;1.20;;;;;;;;;;4993198;28;20232;-86
2023/04/11 14:02:02;;;;;;;4.35;1.52;;;;;;;;;;4983003;28;20240;-87
2023/04/11 14:04:29;;;;;;;3.35;1.25;;;;;;;;;;4971853;28;20735;-86
2023/04/11 14:06:56;;;;;;;1.40;0.93;;;;;;;;;;4986099;28;20239;-86
2023/04/11 14:09:23;;;;;;;1.55;0.90;;;;;;;;;;4991219;28;20250;-86
2023/04/11 14:11:50;;;;;;;2.42;1.02;;;;;;;;;;5004005;28;20242;-86
2023/04/11 14:14:19;;;;;;;4.18;1.00;;;;;;;;;;5011686;28;20562;-86
2023/04/11 14:16:46;;;;;;;2.05;1.08;;;;;;;;;;5011502;28;20239;-88
2023/04/11 14:19:13;;;;;;;3.22;1.67;;;;;;;;;;5012208;28;20230;-86
2023/04/11 14:21:40;;;;;;;1.27;0.88;;;;;;;;;;5011732;28;20330;-89
2023/04/11 14:24:07;;;;;;;1.05;0.80;;;;;;;;;;5013486;28;20666;-91
2023/04/11 14:26:35;;;;;;;2.67;1.33;;;;;;;;;;5002472;28;20251;-89
2023/04/11 14:29:03;;;;;;;2.05;1.05;;;;;;;;;;4992875;28;20196;-89
2023/04/11 14:31:31;;;;;;;2.05;1.10;;;;;;;;;;4992700;28;20334;-88
2023/04/11 14:33:58;;;;;;;2.00;1.13;;;;;;;;;;4993778;28;20232;-89
2023/04/11 14:36:26;;;;;;;1.45;0.90;;;;;;;;;;4992567;28;20246;-89
2023/04/11 14:38:53;;;;;;;1.05;0.70;;;;;;;;;;4993753;28;20228;-89
2023/04/11 14:41:20;;;;;;;3.47;0.98;;;;;;;;;;4993999;28;20276;-89
2023/04/11 14:43:47;;;;;;;1.08;0.80;;;;;;;;;;4994920;28;20219;-89
2023/04/11 14:46:14;;;;;;;2.53;1.30;;;;;;;;;;4992752;28;20247;-89
2023/04/11 14:48:43;;;;;;;3.72;1.20;;;;;;;;;;4994608;28;20215;-86
2023/04/11 14:51:10;;;;;;;3.90;1.75;;;;;;;;;;4994947;28;20228;-87